sensor_id;sensor_type;location;lat;lon;timestamp;P1;durP1;ratioP1;P2;durP2;ratioP2
1020;SDS011;499;42.648;23.270;2023-09-18T00:02:18;11.27;;;9.20;;
1020;SDS011;499;42.648;23.270;2023-09-18T00:04:45;10.70;;;9.57;;
1020;SDS011;499;42.648;23.270;2023-09-18T00:07:13;15.77;;;9.27;;
1020;SDS011;499;42.648;23.270;2023-09-18T00:09:40;12.40;;;9.90;;
1020;SDS011;499;42.648;23.270;2023-09-18T00:12:07;12.47;;;9.90;;
1020;SDS011;499;42.648;23.270;2023-09-18T00:14:36;11.17;;;8.83;;
1020;SDS011;499;42.648;23.270;2023-09-18T00:17:03;14.60;;;10.30;;
1020;SDS011;499;42.648;23.270;2023-09-18T00:19:31;12.20;;;9.17;;
1020;SDS011;499;42.648;23.270;2023-09-18T00:21:58;12.20;;;9.93;;
1020;SDS011;499;42.648;23.270;2023-09-18T00:24:26;11.27;;;9.77;;
1020;SDS011;499;42.648;23.270;2023-09-18T00:26:53;14.13;;;10.83;;
1020;SDS011;499;42.648;23.270;2023-09-18T00:29:20;12.20;;;10.47;;
1020;SDS011;499;42.648;23.270;2023-09-18T00:31:49;13.27;;;10.13;;
1020;SDS011;499;42.648;23.270;2023-09-18T00:34:16;10.80;;;9.20;;
1020;SDS011;499;42.648;23.270;2023-09-18T00:36:43;12.10;;;8.90;;
1020;SDS011;499;42.648;23.270;2023-09-18T00:39:10;10.93;;;9.40;;
1020;SDS011;499;42.648;23.270;2023-09-18T00:41:37;10.97;;;8.67;;
1020;SDS011;499;42.648;23.270;2023-09-18T00:44:04;10.83;;;9.50;;
1020;SDS011;499;42.648;23.270;2023-09-18T00:46:32;10.93;;;9.20;;
1020;SDS011;499;42.648;23.270;2023-09-18T00:49:01;13.93;;;9.20;;
1020;SDS011;499;42.648;23.270;2023-09-18T00:51:28;13.10;;;9.30;;
1020;SDS011;499;42.648;23.270;2023-09-18T00:53:56;11.10;;;8.97;;
1020;SDS011;499;42.648;23.270;2023-09-18T00:56:23;11.63;;;9.77;;
1020;SDS011;499;42.648;23.270;2023-09-18T00:58:50;11.70;;;9.30;;
1020;SDS011;499;42.648;23.270;2023-09-18T01:01:17;12.93;;;8.97;;
1020;SDS011;499;42.648;23.270;2023-09-18T01:03:48;14.50;;;9.57;;
1020;SDS011;499;42.648;23.270;2023-09-18T01:06:17;10.97;;;9.10;;
1020;SDS011;499;42.648;23.270;2023-09-18T01:08:45;10.93;;;9.30;;
1020;SDS011;499;42.648;23.270;2023-09-18T01:11:17;11.30;;;9.77;;
1020;SDS011;499;42.648;23.270;2023-09-18T01:13:54;11.20;;;8.67;;
1020;SDS011;499;42.648;23.270;2023-09-18T01:16:27;10.43;;;8.60;;
1020;SDS011;499;42.648;23.270;2023-09-18T01:18:58;9.40;;;7.77;;
1020;SDS011;499;42.648;23.270;2023-09-18T01:21:29;12.10;;;9.20;;
1020;SDS011;499;42.648;23.270;2023-09-18T01:23:58;12.00;;;8.43;;
1020;SDS011;499;42.648;23.270;2023-09-18T01:26:25;13.47;;;10.17;;
1020;SDS011;499;42.648;23.270;2023-09-18T01:28:52;15.10;;;11.57;;
1020;SDS011;499;42.648;23.270;2023-09-18T01:31:19;13.13;;;10.50;;
1020;SDS011;499;42.648;23.270;2023-09-18T01:33:46;15.53;;;12.80;;
1020;SDS011;499;42.648;23.270;2023-09-18T01:36:14;13.70;;;10.70;;
1020;SDS011;499;42.648;23.270;2023-09-18T01:38:44;20.33;;;12.53;;
1020;SDS011;499;42.648;23.270;2023-09-18T01:41:13;19.27;;;13.63;;
1020;SDS011;499;42.648;23.270;2023-09-18T01:43:40;15.10;;;11.10;;
1020;SDS011;499;42.648;23.270;2023-09-18T01:46:07;18.83;;;13.87;;
1020;SDS011;499;42.648;23.270;2023-09-18T01:48:34;15.80;;;13.53;;
1020;SDS011;499;42.648;23.270;2023-09-18T01:51:01;15.50;;;12.83;;
1020;SDS011;499;42.648;23.270;2023-09-18T01:53:28;20.03;;;15.13;;
1020;SDS011;499;42.648;23.270;2023-09-18T01:55:56;19.57;;;14.00;;
1020;SDS011;499;42.648;23.270;2023-09-18T01:58:24;16.20;;;11.47;;
1020;SDS011;499;42.648;23.270;2023-09-18T02:00:51;14.40;;;10.00;;
1020;SDS011;499;42.648;23.270;2023-09-18T02:03:18;13.80;;;11.43;;
1020;SDS011;499;42.648;23.270;2023-09-18T02:05:46;11.90;;;9.77;;
1020;SDS011;499;42.648;23.270;2023-09-18T02:08:13;12.67;;;9.80;;
1020;SDS011;499;42.648;23.270;2023-09-18T02:10:40;12.20;;;10.37;;
1020;SDS011;499;42.648;23.270;2023-09-18T02:13:07;11.57;;;9.40;;
1020;SDS011;499;42.648;23.270;2023-09-18T02:15:37;14.03;;;11.67;;
1020;SDS011;499;42.648;23.270;2023-09-18T02:18:04;14.03;;;10.10;;
1020;SDS011;499;42.648;23.270;2023-09-18T02:20:31;13.30;;;10.07;;
1020;SDS011;499;42.648;23.270;2023-09-18T02:23:06;14.50;;;10.23;;
1020;SDS011;499;42.648;23.270;2023-09-18T02:25:33;12.10;;;9.33;;
1020;SDS011;499;42.648;23.270;2023-09-18T02:28:00;13.80;;;10.63;;
1020;SDS011;499;42.648;23.270;2023-09-18T02:30:27;15.47;;;10.33;;
1020;SDS011;499;42.648;23.270;2023-09-18T02:32:56;15.93;;;10.47;;
1020;SDS011;499;42.648;23.270;2023-09-18T02:35:22;12.67;;;9.10;;
1020;SDS011;499;42.648;23.270;2023-09-18T02:37:49;15.60;;;10.50;;
1020;SDS011;499;42.648;23.270;2023-09-18T02:40:16;15.53;;;9.90;;
1020;SDS011;499;42.648;23.270;2023-09-18T02:42:43;17.10;;;9.80;;
1020;SDS011;499;42.648;23.270;2023-09-18T02:45:10;12.93;;;9.60;;
1020;SDS011;499;42.648;23.270;2023-09-18T02:47:37;12.43;;;10.20;;
1020;SDS011;499;42.648;23.270;2023-09-18T02:50:08;12.10;;;10.07;;
1020;SDS011;499;42.648;23.270;2023-09-18T02:52:36;14.90;;;11.30;;
1020;SDS011;499;42.648;23.270;2023-09-18T02:55:04;15.27;;;11.20;;
1020;SDS011;499;42.648;23.270;2023-09-18T02:57:31;14.40;;;10.60;;
1020;SDS011;499;42.648;23.270;2023-09-18T02:59:58;12.60;;;10.40;;
1020;SDS011;499;42.648;23.270;2023-09-18T03:02:25;15.07;;;11.10;;
1020;SDS011;499;42.648;23.270;2023-09-18T03:04:52;11.90;;;9.40;;
1020;SDS011;499;42.648;23.270;2023-09-18T03:07:20;12.17;;;9.43;;
1020;SDS011;499;42.648;23.270;2023-09-18T03:09:47;13.10;;;10.37;;
1020;SDS011;499;42.648;23.270;2023-09-18T03:12:14;13.00;;;9.00;;
1020;SDS011;499;42.648;23.270;2023-09-18T03:14:41;15.27;;;11.57;;
1020;SDS011;499;42.648;23.270;2023-09-18T03:17:08;14.40;;;9.70;;
1020;SDS011;499;42.648;23.270;2023-09-18T03:19:35;11.03;;;8.70;;
1020;SDS011;499;42.648;23.270;2023-09-18T03:22:02;15.93;;;10.70;;
1020;SDS011;499;42.648;23.270;2023-09-18T03:24:31;15.20;;;11.03;;
1020;SDS011;499;42.648;23.270;2023-09-18T03:26:58;14.00;;;10.03;;
1020;SDS011;499;42.648;23.270;2023-09-18T03:29:25;14.73;;;10.00;;
1020;SDS011;499;42.648;23.270;2023-09-18T03:31:52;15.40;;;10.10;;
1020;SDS011;499;42.648;23.270;2023-09-18T03:34:23;13.83;;;10.80;;
1020;SDS011;499;42.648;23.270;2023-09-18T03:36:52;14.80;;;10.60;;
1020;SDS011;499;42.648;23.270;2023-09-18T03:39:19;16.77;;;11.23;;
1020;SDS011;499;42.648;23.270;2023-09-18T03:41:47;13.73;;;9.57;;
1020;SDS011;499;42.648;23.270;2023-09-18T03:44:14;15.73;;;10.80;;
1020;SDS011;499;42.648;23.270;2023-09-18T03:46:42;14.83;;;9.80;;
1020;SDS011;499;42.648;23.270;2023-09-18T03:49:09;12.40;;;9.90;;
1020;SDS011;499;42.648;23.270;2023-09-18T03:51:36;13.70;;;10.90;;
1020;SDS011;499;42.648;23.270;2023-09-18T03:54:03;12.93;;;10.50;;
1020;SDS011;499;42.648;23.270;2023-09-18T03:56:30;13.43;;;9.93;;
1020;SDS011;499;42.648;23.270;2023-09-18T03:58:58;13.97;;;10.33;;
1020;SDS011;499;42.648;23.270;2023-09-18T04:01:26;13.63;;;9.63;;
1020;SDS011;499;42.648;23.270;2023-09-18T04:03:53;15.80;;;10.23;;
1020;SDS011;499;42.648;23.270;2023-09-18T04:06:21;14.00;;;10.20;;
1020;SDS011;499;42.648;23.270;2023-09-18T04:08:49;17.77;;;12.17;;
1020;SDS011;499;42.648;23.270;2023-09-18T04:11:16;16.50;;;11.57;;
1020;SDS011;499;42.648;23.270;2023-09-18T04:13:51;14.60;;;10.63;;
1020;SDS011;499;42.648;23.270;2023-09-18T04:16:19;16.33;;;11.27;;
1020;SDS011;499;42.648;23.270;2023-09-18T04:18:46;17.53;;;11.63;;
1020;SDS011;499;42.648;23.270;2023-09-18T04:21:13;18.07;;;11.07;;
1020;SDS011;499;42.648;23.270;2023-09-18T04:23:40;14.07;;;11.50;;
1020;SDS011;499;42.648;23.270;2023-09-18T04:26:07;14.20;;;12.00;;
1020;SDS011;499;42.648;23.270;2023-09-18T04:28:34;14.30;;;11.40;;
1020;SDS011;499;42.648;23.270;2023-09-18T04:31:01;17.67;;;13.20;;
1020;SDS011;499;42.648;23.270;2023-09-18T04:33:29;16.50;;;12.93;;
1020;SDS011;499;42.648;23.270;2023-09-18T04:35:56;19.23;;;14.50;;
1020;SDS011;499;42.648;23.270;2023-09-18T04:38:23;22.67;;;13.10;;
1020;SDS011;499;42.648;23.270;2023-09-18T04:40:57;17.57;;;13.10;;
1020;SDS011;499;42.648;23.270;2023-09-18T04:43:24;15.70;;;12.23;;
1020;SDS011;499;42.648;23.270;2023-09-18T04:45:51;18.30;;;13.03;;
1020;SDS011;499;42.648;23.270;2023-09-18T04:48:18;17.93;;;13.90;;
1020;SDS011;499;42.648;23.270;2023-09-18T04:50:46;15.80;;;11.87;;
1020;SDS011;499;42.648;23.270;2023-09-18T04:53:14;20.40;;;14.33;;
1020;SDS011;499;42.648;23.270;2023-09-18T04:55:41;18.27;;;12.37;;
1020;SDS011;499;42.648;23.270;2023-09-18T04:58:08;18.83;;;13.47;;
1020;SDS011;499;42.648;23.270;2023-09-18T05:00:35;17.40;;;12.40;;
1020;SDS011;499;42.648;23.270;2023-09-18T05:03:02;18.37;;;12.50;;
1020;SDS011;499;42.648;23.270;2023-09-18T05:05:31;19.10;;;13.40;;
1020;SDS011;499;42.648;23.270;2023-09-18T05:08:00;17.20;;;12.37;;
1020;SDS011;499;42.648;23.270;2023-09-18T05:10:28;22.90;;;13.17;;
1020;SDS011;499;42.648;23.270;2023-09-18T05:12:55;19.10;;;13.53;;
1020;SDS011;499;42.648;23.270;2023-09-18T05:15:24;18.20;;;13.60;;
1020;SDS011;499;42.648;23.270;2023-09-18T05:17:54;19.40;;;15.80;;
1020;SDS011;499;42.648;23.270;2023-09-18T05:20:23;18.30;;;14.27;;
1020;SDS011;499;42.648;23.270;2023-09-18T05:22:50;18.00;;;12.93;;
1020;SDS011;499;42.648;23.270;2023-09-18T05:25:20;19.33;;;13.20;;
1020;SDS011;499;42.648;23.270;2023-09-18T05:27:48;22.60;;;15.33;;
1020;SDS011;499;42.648;23.270;2023-09-18T05:30:20;14.87;;;12.90;;
1020;SDS011;499;42.648;23.270;2023-09-18T05:32:53;16.00;;;13.97;;
1020;SDS011;499;42.648;23.270;2023-09-18T05:35:20;16.27;;;14.57;;
1020;SDS011;499;42.648;23.270;2023-09-18T05:37:48;21.37;;;15.50;;
1020;SDS011;499;42.648;23.270;2023-09-18T05:40:16;17.53;;;14.67;;
1020;SDS011;499;42.648;23.270;2023-09-18T05:42:45;17.83;;;13.43;;
1020;SDS011;499;42.648;23.270;2023-09-18T05:45:12;16.00;;;13.67;;
1020;SDS011;499;42.648;23.270;2023-09-18T05:47:40;19.53;;;13.43;;
1020;SDS011;499;42.648;23.270;2023-09-18T05:50:08;18.00;;;14.53;;
1020;SDS011;499;42.648;23.270;2023-09-18T05:52:40;19.47;;;14.63;;
1020;SDS011;499;42.648;23.270;2023-09-18T05:55:07;19.73;;;13.80;;
1020;SDS011;499;42.648;23.270;2023-09-18T05:57:34;19.13;;;14.53;;
1020;SDS011;499;42.648;23.270;2023-09-18T06:00:04;20.50;;;14.50;;
1020;SDS011;499;42.648;23.270;2023-09-18T06:02:32;17.63;;;13.40;;
1020;SDS011;499;42.648;23.270;2023-09-18T06:04:59;19.20;;;14.60;;
1020;SDS011;499;42.648;23.270;2023-09-18T06:07:28;17.43;;;12.50;;
1020;SDS011;499;42.648;23.270;2023-09-18T06:09:57;19.57;;;13.93;;
1020;SDS011;499;42.648;23.270;2023-09-18T06:12:24;17.03;;;13.27;;
1020;SDS011;499;42.648;23.270;2023-09-18T06:14:52;17.67;;;12.30;;
1020;SDS011;499;42.648;23.270;2023-09-18T06:17:20;17.43;;;13.30;;
1020;SDS011;499;42.648;23.270;2023-09-18T06:19:47;17.60;;;11.50;;
1020;SDS011;499;42.648;23.270;2023-09-18T06:22:14;15.50;;;11.27;;
1020;SDS011;499;42.648;23.270;2023-09-18T06:24:41;16.10;;;12.40;;
1020;SDS011;499;42.648;23.270;2023-09-18T06:27:09;16.30;;;12.20;;
1020;SDS011;499;42.648;23.270;2023-09-18T06:29:36;16.43;;;13.30;;
1020;SDS011;499;42.648;23.270;2023-09-18T06:32:04;18.27;;;11.70;;
1020;SDS011;499;42.648;23.270;2023-09-18T06:34:33;18.10;;;12.43;;
1020;SDS011;499;42.648;23.270;2023-09-18T06:37:00;15.50;;;12.10;;
1020;SDS011;499;42.648;23.270;2023-09-18T06:39:29;16.00;;;13.37;;
1020;SDS011;499;42.648;23.270;2023-09-18T06:41:56;16.33;;;13.27;;
1020;SDS011;499;42.648;23.270;2023-09-18T06:44:23;15.67;;;11.53;;
1020;SDS011;499;42.648;23.270;2023-09-18T06:46:50;16.27;;;12.33;;
1020;SDS011;499;42.648;23.270;2023-09-18T06:49:17;14.00;;;10.93;;
1020;SDS011;499;42.648;23.270;2023-09-18T06:51:46;18.10;;;12.47;;
1020;SDS011;499;42.648;23.270;2023-09-18T06:54:13;16.67;;;11.70;;
1020;SDS011;499;42.648;23.270;2023-09-18T06:56:40;16.17;;;12.90;;
1020;SDS011;499;42.648;23.270;2023-09-18T06:59:09;17.63;;;12.27;;
1020;SDS011;499;42.648;23.270;2023-09-18T07:01:37;14.17;;;12.30;;
1020;SDS011;499;42.648;23.270;2023-09-18T07:04:04;16.03;;;11.60;;
1020;SDS011;499;42.648;23.270;2023-09-18T07:06:31;15.63;;;12.80;;
1020;SDS011;499;42.648;23.270;2023-09-18T07:09:00;20.30;;;11.83;;
1020;SDS011;499;42.648;23.270;2023-09-18T07:11:29;19.83;;;14.23;;
1020;SDS011;499;42.648;23.270;2023-09-18T07:13:56;16.50;;;13.43;;
1020;SDS011;499;42.648;23.270;2023-09-18T07:16:23;15.40;;;11.10;;
1020;SDS011;499;42.648;23.270;2023-09-18T07:18:50;17.30;;;11.73;;
1020;SDS011;499;42.648;23.270;2023-09-18T07:21:17;13.30;;;11.10;;
1020;SDS011;499;42.648;23.270;2023-09-18T07:23:45;15.27;;;11.20;;
1020;SDS011;499;42.648;23.270;2023-09-18T07:26:15;14.63;;;10.37;;
1020;SDS011;499;42.648;23.270;2023-09-18T07:28:42;16.17;;;11.87;;
1020;SDS011;499;42.648;23.270;2023-09-18T07:31:09;14.20;;;10.13;;
1020;SDS011;499;42.648;23.270;2023-09-18T07:33:39;15.50;;;12.00;;
1020;SDS011;499;42.648;23.270;2023-09-18T07:36:06;13.23;;;9.77;;
1020;SDS011;499;42.648;23.270;2023-09-18T07:38:35;14.63;;;10.90;;
1020;SDS011;499;42.648;23.270;2023-09-18T07:41:02;16.93;;;11.10;;
1020;SDS011;499;42.648;23.270;2023-09-18T07:43:31;13.47;;;10.50;;
1020;SDS011;499;42.648;23.270;2023-09-18T07:45:58;15.60;;;11.17;;
1020;SDS011;499;42.648;23.270;2023-09-18T07:48:26;14.67;;;10.73;;
1020;SDS011;499;42.648;23.270;2023-09-18T07:50:53;12.80;;;10.50;;
1020;SDS011;499;42.648;23.270;2023-09-18T07:53:20;16.40;;;10.90;;
1020;SDS011;499;42.648;23.270;2023-09-18T07:55:48;11.90;;;9.10;;
1020;SDS011;499;42.648;23.270;2023-09-18T07:58:21;12.97;;;9.37;;
1020;SDS011;499;42.648;23.270;2023-09-18T08:00:50;13.27;;;10.20;;
1020;SDS011;499;42.648;23.270;2023-09-18T08:03:19;11.43;;;9.90;;
1020;SDS011;499;42.648;23.270;2023-09-18T08:05:49;14.70;;;11.40;;
1020;SDS011;499;42.648;23.270;2023-09-18T08:08:17;12.40;;;10.00;;
1020;SDS011;499;42.648;23.270;2023-09-18T08:10:45;14.47;;;10.37;;
1020;SDS011;499;42.648;23.270;2023-09-18T08:13:12;13.10;;;9.77;;
1020;SDS011;499;42.648;23.270;2023-09-18T08:15:39;10.67;;;9.10;;
1020;SDS011;499;42.648;23.270;2023-09-18T08:18:08;11.60;;;9.70;;
1020;SDS011;499;42.648;23.270;2023-09-18T08:20:36;12.73;;;10.40;;
1020;SDS011;499;42.648;23.270;2023-09-18T08:23:06;11.63;;;9.30;;
1020;SDS011;499;42.648;23.270;2023-09-18T08:25:33;13.23;;;9.73;;
1020;SDS011;499;42.648;23.270;2023-09-18T08:28:00;11.90;;;9.00;;
1020;SDS011;499;42.648;23.270;2023-09-18T08:30:28;13.80;;;9.83;;
1020;SDS011;499;42.648;23.270;2023-09-18T08:32:55;13.27;;;9.30;;
1020;SDS011;499;42.648;23.270;2023-09-18T08:35:23;12.90;;;9.50;;
1020;SDS011;499;42.648;23.270;2023-09-18T08:37:54;11.63;;;9.10;;
1020;SDS011;499;42.648;23.270;2023-09-18T08:40:22;10.67;;;8.90;;
1020;SDS011;499;42.648;23.270;2023-09-18T08:42:51;11.47;;;8.70;;
1020;SDS011;499;42.648;23.270;2023-09-18T08:45:22;10.60;;;9.40;;
1020;SDS011;499;42.648;23.270;2023-09-18T08:47:53;15.77;;;10.00;;
1020;SDS011;499;42.648;23.270;2023-09-18T08:50:21;12.43;;;9.33;;
1020;SDS011;499;42.648;23.270;2023-09-18T08:52:50;10.60;;;8.30;;
1020;SDS011;499;42.648;23.270;2023-09-18T08:55:17;10.90;;;8.47;;
1020;SDS011;499;42.648;23.270;2023-09-18T08:57:44;12.83;;;9.80;;
1020;SDS011;499;42.648;23.270;2023-09-18T09:00:13;11.50;;;9.13;;
1020;SDS011;499;42.648;23.270;2023-09-18T09:02:43;11.27;;;8.30;;
1020;SDS011;499;42.648;23.270;2023-09-18T09:05:10;12.17;;;9.20;;
1020;SDS011;499;42.648;23.270;2023-09-18T09:07:38;11.30;;;8.63;;
1020;SDS011;499;42.648;23.270;2023-09-18T09:10:06;11.43;;;7.90;;
1020;SDS011;499;42.648;23.270;2023-09-18T09:12:46;9.00;;;7.10;;
1020;SDS011;499;42.648;23.270;2023-09-18T09:15:14;11.53;;;7.60;;
1020;SDS011;499;42.648;23.270;2023-09-18T09:17:42;7.83;;;6.90;;
1020;SDS011;499;42.648;23.270;2023-09-18T09:20:10;7.90;;;5.90;;
1020;SDS011;499;42.648;23.270;2023-09-18T09:22:38;9.73;;;7.80;;
1020;SDS011;499;42.648;23.270;2023-09-18T09:25:12;10.13;;;6.90;;
1020;SDS011;499;42.648;23.270;2023-09-18T09:27:48;8.63;;;7.00;;
1020;SDS011;499;42.648;23.270;2023-09-18T09:30:18;12.20;;;6.83;;
1020;SDS011;499;42.648;23.270;2023-09-18T09:32:47;11.17;;;6.90;;
1020;SDS011;499;42.648;23.270;2023-09-18T09:35:19;8.90;;;7.17;;
1020;SDS011;499;42.648;23.270;2023-09-18T09:37:47;10.30;;;7.50;;
1020;SDS011;499;42.648;23.270;2023-09-18T09:40:17;9.13;;;6.60;;
1020;SDS011;499;42.648;23.270;2023-09-18T09:42:46;7.67;;;5.93;;
1020;SDS011;499;42.648;23.270;2023-09-18T09:45:14;7.47;;;5.47;;
1020;SDS011;499;42.648;23.270;2023-09-18T09:47:42;7.90;;;5.23;;
1020;SDS011;499;42.648;23.270;2023-09-18T09:50:10;8.20;;;6.33;;
1020;SDS011;499;42.648;23.270;2023-09-18T09:52:41;8.80;;;6.70;;
1020;SDS011;499;42.648;23.270;2023-09-18T09:55:21;7.37;;;4.50;;
1020;SDS011;499;42.648;23.270;2023-09-18T09:57:51;6.63;;;5.37;;
1020;SDS011;499;42.648;23.270;2023-09-18T10:00:19;6.10;;;5.07;;
1020;SDS011;499;42.648;23.270;2023-09-18T10:02:53;5.60;;;4.60;;
1020;SDS011;499;42.648;23.270;2023-09-18T10:05:24;4.90;;;4.40;;
1020;SDS011;499;42.648;23.270;2023-09-18T10:07:54;6.20;;;5.00;;
1020;SDS011;499;42.648;23.270;2023-09-18T10:10:25;7.77;;;6.00;;
1020;SDS011;499;42.648;23.270;2023-09-18T10:13:00;6.33;;;5.50;;
1020;SDS011;499;42.648;23.270;2023-09-18T10:15:33;7.20;;;5.30;;
1020;SDS011;499;42.648;23.270;2023-09-18T10:18:04;8.50;;;6.23;;
1020;SDS011;499;42.648;23.270;2023-09-18T10:20:37;6.50;;;5.10;;
1020;SDS011;499;42.648;23.270;2023-09-18T10:23:11;9.27;;;6.00;;
1020;SDS011;499;42.648;23.270;2023-09-18T10:25:50;6.43;;;5.17;;
1020;SDS011;499;42.648;23.270;2023-09-18T10:28:20;5.97;;;5.37;;
1020;SDS011;499;42.648;23.270;2023-09-18T10:30:48;6.97;;;5.37;;
1020;SDS011;499;42.648;23.270;2023-09-18T10:33:17;10.43;;;6.03;;
1020;SDS011;499;42.648;23.270;2023-09-18T10:35:44;6.93;;;5.33;;
1020;SDS011;499;42.648;23.270;2023-09-18T10:38:13;7.00;;;5.57;;
1020;SDS011;499;42.648;23.270;2023-09-18T10:40:43;8.20;;;5.90;;
1020;SDS011;499;42.648;23.270;2023-09-18T10:43:15;7.67;;;4.97;;
1020;SDS011;499;42.648;23.270;2023-09-18T10:45:43;6.57;;;5.47;;
1020;SDS011;499;42.648;23.270;2023-09-18T10:48:11;6.70;;;4.73;;
1020;SDS011;499;42.648;23.270;2023-09-18T10:50:39;7.20;;;5.50;;
1020;SDS011;499;42.648;23.270;2023-09-18T10:53:11;6.80;;;5.60;;
1020;SDS011;499;42.648;23.270;2023-09-18T10:55:38;8.57;;;6.40;;
1020;SDS011;499;42.648;23.270;2023-09-18T10:58:08;7.50;;;5.80;;
1020;SDS011;499;42.648;23.270;2023-09-18T11:00:36;8.50;;;5.50;;
1020;SDS011;499;42.648;23.270;2023-09-18T11:03:10;8.30;;;5.60;;
1020;SDS011;499;42.648;23.270;2023-09-18T11:05:43;10.03;;;5.80;;
1020;SDS011;499;42.648;23.270;2023-09-18T11:08:24;8.03;;;4.90;;
1020;SDS011;499;42.648;23.270;2023-09-18T11:10:55;6.40;;;4.73;;
1020;SDS011;499;42.648;23.270;2023-09-18T11:13:30;6.50;;;5.50;;
1020;SDS011;499;42.648;23.270;2023-09-18T11:16:03;5.27;;;4.70;;
1020;SDS011;499;42.648;23.270;2023-09-18T11:18:41;8.20;;;5.50;;
1020;SDS011;499;42.648;23.270;2023-09-18T11:21:09;7.10;;;5.53;;
1020;SDS011;499;42.648;23.270;2023-09-18T11:23:37;5.83;;;4.57;;
1020;SDS011;499;42.648;23.270;2023-09-18T11:26:08;7.87;;;5.70;;
1020;SDS011;499;42.648;23.270;2023-09-18T11:28:36;5.30;;;4.80;;
1020;SDS011;499;42.648;23.270;2023-09-18T11:31:05;7.17;;;5.73;;
1020;SDS011;499;42.648;23.270;2023-09-18T11:33:33;6.40;;;4.93;;
1020;SDS011;499;42.648;23.270;2023-09-18T11:36:03;7.90;;;4.80;;
1020;SDS011;499;42.648;23.270;2023-09-18T11:38:32;5.53;;;4.50;;
1020;SDS011;499;42.648;23.270;2023-09-18T11:41:01;5.60;;;4.53;;
1020;SDS011;499;42.648;23.270;2023-09-18T11:43:47;5.00;;;4.50;;
1020;SDS011;499;42.648;23.270;2023-09-18T11:46:18;5.93;;;4.83;;
1020;SDS011;499;42.648;23.270;2023-09-18T11:48:47;6.40;;;5.60;;
1020;SDS011;499;42.648;23.270;2023-09-18T11:51:20;5.50;;;4.40;;
1020;SDS011;499;42.648;23.270;2023-09-18T11:53:50;6.57;;;4.90;;
1020;SDS011;499;42.648;23.270;2023-09-18T11:56:21;7.10;;;5.13;;
1020;SDS011;499;42.648;23.270;2023-09-18T11:58:49;6.33;;;4.97;;
1020;SDS011;499;42.648;23.270;2023-09-18T12:01:20;6.00;;;4.43;;
1020;SDS011;499;42.648;23.270;2023-09-18T12:03:52;6.57;;;4.10;;
1020;SDS011;499;42.648;23.270;2023-09-18T12:06:19;6.33;;;4.90;;
1020;SDS011;499;42.648;23.270;2023-09-18T12:08:48;7.57;;;5.67;;
1020;SDS011;499;42.648;23.270;2023-09-18T12:11:17;8.50;;;5.07;;
1020;SDS011;499;42.648;23.270;2023-09-18T12:13:45;6.60;;;5.40;;
1020;SDS011;499;42.648;23.270;2023-09-18T12:16:13;4.93;;;4.07;;
1020;SDS011;499;42.648;23.270;2023-09-18T12:18:46;4.37;;;3.77;;
1020;SDS011;499;42.648;23.270;2023-09-18T12:21:14;5.67;;;4.67;;
1020;SDS011;499;42.648;23.270;2023-09-18T12:23:43;4.53;;;4.10;;
1020;SDS011;499;42.648;23.270;2023-09-18T12:26:11;4.43;;;3.70;;
1020;SDS011;499;42.648;23.270;2023-09-18T12:28:39;5.40;;;4.73;;
1020;SDS011;499;42.648;23.270;2023-09-18T12:31:10;6.50;;;4.97;;
1020;SDS011;499;42.648;23.270;2023-09-18T12:33:37;5.23;;;4.23;;
1020;SDS011;499;42.648;23.270;2023-09-18T12:36:07;5.53;;;5.03;;
1020;SDS011;499;42.648;23.270;2023-09-18T12:38:34;6.57;;;4.40;;
1020;SDS011;499;42.648;23.270;2023-09-18T12:41:02;5.23;;;4.70;;
1020;SDS011;499;42.648;23.270;2023-09-18T12:43:33;6.07;;;4.60;;
1020;SDS011;499;42.648;23.270;2023-09-18T12:46:02;6.50;;;5.40;;
1020;SDS011;499;42.648;23.270;2023-09-18T12:48:31;5.20;;;4.70;;
1020;SDS011;499;42.648;23.270;2023-09-18T12:51:04;6.20;;;4.70;;
1020;SDS011;499;42.648;23.270;2023-09-18T12:53:33;5.43;;;4.80;;
1020;SDS011;499;42.648;23.270;2023-09-18T12:56:06;4.63;;;4.10;;
1020;SDS011;499;42.648;23.270;2023-09-18T12:58:35;7.27;;;4.73;;
1020;SDS011;499;42.648;23.270;2023-09-18T13:01:06;7.23;;;5.80;;
1020;SDS011;499;42.648;23.270;2023-09-18T13:03:35;5.23;;;4.47;;
1020;SDS011;499;42.648;23.270;2023-09-18T13:06:08;5.20;;;4.67;;
1020;SDS011;499;42.648;23.270;2023-09-18T13:08:38;8.67;;;4.43;;
1020;SDS011;499;42.648;23.270;2023-09-18T13:11:05;6.90;;;5.53;;
1020;SDS011;499;42.648;23.270;2023-09-18T13:13:32;5.10;;;4.60;;
1020;SDS011;499;42.648;23.270;2023-09-18T13:16:00;5.77;;;4.47;;
1020;SDS011;499;42.648;23.270;2023-09-18T13:18:30;5.00;;;4.10;;
1020;SDS011;499;42.648;23.270;2023-09-18T13:20:57;4.90;;;4.20;;
1020;SDS011;499;42.648;23.270;2023-09-18T13:23:28;6.10;;;4.90;;
1020;SDS011;499;42.648;23.270;2023-09-18T13:26:00;6.30;;;4.37;;
1020;SDS011;499;42.648;23.270;2023-09-18T13:28:29;5.00;;;4.30;;
1020;SDS011;499;42.648;23.270;2023-09-18T13:30:58;6.40;;;5.30;;
1020;SDS011;499;42.648;23.270;2023-09-18T13:33:25;5.53;;;5.03;;
1020;SDS011;499;42.648;23.270;2023-09-18T13:35:53;4.73;;;4.30;;
1020;SDS011;499;42.648;23.270;2023-09-18T13:38:21;5.70;;;4.83;;
1020;SDS011;499;42.648;23.270;2023-09-18T13:40:48;4.57;;;4.10;;
1020;SDS011;499;42.648;23.270;2023-09-18T13:43:17;6.10;;;4.53;;
1020;SDS011;499;42.648;23.270;2023-09-18T13:45:46;6.13;;;4.83;;
1020;SDS011;499;42.648;23.270;2023-09-18T13:48:16;5.50;;;4.90;;
1020;SDS011;499;42.648;23.270;2023-09-18T13:50:44;6.20;;;4.83;;
1020;SDS011;499;42.648;23.270;2023-09-18T13:53:11;5.60;;;4.60;;
1020;SDS011;499;42.648;23.270;2023-09-18T13:55:39;5.30;;;4.80;;
1020;SDS011;499;42.648;23.270;2023-09-18T13:58:06;6.27;;;5.67;;
1020;SDS011;499;42.648;23.270;2023-09-18T14:00:35;7.37;;;5.00;;
1020;SDS011;499;42.648;23.270;2023-09-18T14:03:03;4.93;;;4.43;;
1020;SDS011;499;42.648;23.270;2023-09-18T14:05:30;7.37;;;5.17;;
1020;SDS011;499;42.648;23.270;2023-09-18T14:07:59;5.27;;;4.67;;
1020;SDS011;499;42.648;23.270;2023-09-18T14:10:26;6.10;;;5.43;;
1020;SDS011;499;42.648;23.270;2023-09-18T14:12:54;7.90;;;5.43;;
1020;SDS011;499;42.648;23.270;2023-09-18T14:15:22;6.77;;;5.60;;
1020;SDS011;499;42.648;23.270;2023-09-18T14:17:50;5.80;;;5.20;;
1020;SDS011;499;42.648;23.270;2023-09-18T14:20:17;9.00;;;5.50;;
1020;SDS011;499;42.648;23.270;2023-09-18T14:22:45;7.83;;;5.00;;
1020;SDS011;499;42.648;23.270;2023-09-18T14:25:14;5.63;;;4.83;;
1020;SDS011;499;42.648;23.270;2023-09-18T14:27:42;6.07;;;5.17;;
1020;SDS011;499;42.648;23.270;2023-09-18T14:30:09;7.30;;;5.20;;
1020;SDS011;499;42.648;23.270;2023-09-18T14:32:38;6.00;;;5.37;;
1020;SDS011;499;42.648;23.270;2023-09-18T14:35:07;6.00;;;5.27;;
1020;SDS011;499;42.648;23.270;2023-09-18T14:37:35;5.93;;;5.20;;
1020;SDS011;499;42.648;23.270;2023-09-18T14:40:02;6.20;;;5.40;;
1020;SDS011;499;42.648;23.270;2023-09-18T14:42:29;6.70;;;5.60;;
1020;SDS011;499;42.648;23.270;2023-09-18T14:44:58;5.93;;;5.33;;
1020;SDS011;499;42.648;23.270;2023-09-18T14:47:26;8.30;;;6.93;;
1020;SDS011;499;42.648;23.270;2023-09-18T14:49:53;9.27;;;5.80;;
1020;SDS011;499;42.648;23.270;2023-09-18T14:52:21;9.63;;;7.60;;
1020;SDS011;499;42.648;23.270;2023-09-18T14:54:50;8.73;;;6.20;;
1020;SDS011;499;42.648;23.270;2023-09-18T14:57:17;7.93;;;6.27;;
1020;SDS011;499;42.648;23.270;2023-09-18T14:59:44;6.67;;;5.97;;
1020;SDS011;499;42.648;23.270;2023-09-18T15:02:12;6.67;;;5.97;;
1020;SDS011;499;42.648;23.270;2023-09-18T15:04:41;6.90;;;5.80;;
1020;SDS011;499;42.648;23.270;2023-09-18T15:07:28;7.40;;;5.90;;
1020;SDS011;499;42.648;23.270;2023-09-18T15:09:55;5.20;;;4.70;;